Time;durP1;ratioP1;P1;durP2;ratioP2;P2;SDS_P1;SDS_P2;PMS_P1;PMS_P2;Temp;Humidity;BMP_temperature;BMP_pressure;BME280_temperature;BME280_humidity;BME280_pressure;Samples;Min_cycle;Max_cycle;Signal;HPM_P1;HPM_P2
2022/04/09 00:01:20;;;;;;;9.80;4.17;;;4.10;1.00;;;;;;5067442;28;20544;-64
2022/04/09 00:03:47;;;;;;;17.00;5.57;;;4.10;1.00;;;;;;5068367;28;20478;-64
2022/04/09 00:06:16;;;;;;;14.27;4.43;;;4.10;1.00;;;;;;5066731;28;20540;-64
2022/04/09 00:08:48;;;;;;;11.23;6.00;;;4.10;1.00;;;;;;5067053;28;20461;-64
2022/04/09 00:11:18;;;;;;;14.13;5.60;;;4.20;1.00;;;;;;5065575;28;20512;-64
2022/04/09 00:13:45;;;;;;;12.30;4.77;;;4.20;1.00;;;;;;5067814;28;20480;-64
2022/04/09 00:16:15;;;;;;;12.13;4.80;;;4.30;1.00;;;;;;5065574;28;20539;-64
2022/04/09 00:18:45;;;;;;;6.67;3.80;;;4.30;1.00;;;;;;5064246;28;20974;-64
2022/04/09 00:21:12;;;;;;;6.40;4.57;;;4.30;1.00;;;;;;5067575;28;20454;-64
2022/04/09 00:23:44;;;;;;;14.10;4.57;;;4.30;1.00;;;;;;5067325;28;20462;-64
2022/04/09 00:26:19;;;;;;;6.80;4.10;;;4.40;1.00;;;;;;5065472;28;20458;-64
2022/04/09 00:28:45;;;;;;;11.87;4.70;;;4.40;1.00;;;;;;5066524;28;20885;-64
2022/04/09 00:31:15;;;;;;;8.43;4.00;;;4.40;1.00;;;;;;5068003;28;20515;-64
2022/04/09 00:33:42;;;;;;;11.33;4.50;;;4.40;1.00;;;;;;5066261;28;20768;-64
2022/04/09 00:36:12;;;;;;;12.37;4.47;;;4.40;1.00;;;;;;5068539;28;20494;-63
2022/04/09 00:38:39;;;;;;;7.53;4.50;;;4.40;1.00;;;;;;5060405;28;20462;-64
2022/04/09 00:41:10;;;;;;;13.57;5.50;;;4.40;1.00;;;;;;5058501;28;20497;-64
2022/04/09 00:43:46;;;;;;;12.67;4.33;;;4.40;1.00;;;;;;5058455;28;20823;-64
2022/04/09 00:46:17;;;;;;;10.20;3.70;;;4.40;1.00;;;;;;5061252;28;20947;-64
2022/04/09 00:48:44;;;;;;;12.47;4.37;;;4.40;1.00;;;;;;5060026;28;20470;-64
2022/04/09 00:51:16;;;;;;;8.80;3.93;;;4.30;1.00;;;;;;5056992;28;20462;-64
2022/04/09 00:53:48;;;;;;;11.07;4.27;;;4.20;1.00;;;;;;5039570;28;20465;-64
2022/04/09 00:56:21;;;;;;;14.73;3.97;;;4.20;1.00;;;;;;5036698;28;20519;-63
2022/04/09 00:58:55;;;;;;;11.03;3.77;;;4.30;1.00;;;;;;5057103;28;20494;-64
2022/04/09 01:01:32;;;;;;;14.53;4.10;;;4.30;1.00;;;;;;5056812;28;20462;-64
2022/04/09 01:04:00;;;;;;;15.20;6.40;;;4.30;1.00;;;;;;5058819;28;20461;-64
2022/04/09 01:06:29;;;;;;;10.27;3.70;;;4.30;1.00;;;;;;5057268;28;20508;-63
2022/04/09 01:09:01;;;;;;;15.23;4.70;;;4.30;1.00;;;;;;5055052;28;20757;-64
2022/04/09 01:11:28;;;;;;;10.23;4.50;;;4.30;1.00;;;;;;5055623;28;20768;-64
2022/04/09 01:14:05;;;;;;;9.80;4.13;;;4.30;1.00;;;;;;5055616;28;20508;-64
2022/04/09 01:16:32;;;;;;;16.23;4.63;;;4.30;1.00;;;;;;5056814;28;20589;-64
2022/04/09 01:19:01;;;;;;;7.73;3.93;;;4.30;1.00;;;;;;5056074;28;20523;-63
2022/04/09 01:21:29;;;;;;;12.37;4.53;;;4.30;1.00;;;;;;5057448;28;20514;-64
2022/04/09 01:23:59;;;;;;;12.70;4.60;;;4.30;1.00;;;;;;5056394;28;20462;-64
2022/04/09 01:26:27;;;;;;;11.40;4.70;;;4.30;1.00;;;;;;5056472;28;20820;-64
2022/04/09 01:28:54;;;;;;;12.93;5.57;;;4.40;1.00;;;;;;5056843;28;20566;-64
2022/04/09 01:31:25;;;;;;;10.53;4.80;;;4.40;1.00;;;;;;5057158;28;20492;-64
2022/04/09 01:33:55;;;;;;;9.33;5.53;;;4.40;1.00;;;;;;5056282;28;20461;-64
2022/04/09 01:36:23;;;;;;;13.20;5.43;;;4.40;1.00;;;;;;5057148;28;20586;-64
2022/04/09 01:38:55;;;;;;;14.03;6.43;;;4.30;1.00;;;;;;5054863;28;20433;-64
2022/04/09 01:41:24;;;;;;;18.60;6.30;;;4.20;1.00;;;;;;5056578;28;20979;-64
2022/04/09 01:43:50;;;;;;;10.43;5.60;;;4.20;1.00;;;;;;5056759;28;20517;-64
2022/04/09 01:46:19;;;;;;;15.40;6.13;;;4.10;1.00;;;;;;5057187;28;20938;-64
2022/04/09 01:48:48;;;;;;;17.37;6.07;;;4.10;1.00;;;;;;5056598;28;20831;-64
2022/04/09 01:51:15;;;;;;;11.90;5.27;;;4.10;1.00;;;;;;5053976;28;20505;-64
2022/04/09 01:53:46;;;;;;;9.63;5.63;;;4.20;1.00;;;;;;5070425;28;20557;-64
2022/04/09 01:56:15;;;;;;;15.00;6.47;;;4.10;1.00;;;;;;5057268;28;20494;-64
2022/04/09 01:58:43;;;;;;;20.07;6.27;;;4.00;1.00;;;;;;5057020;28;20847;-64
2022/04/09 02:01:19;;;;;;;18.97;6.77;;;3.90;5.70;;;;;;5056226;28;20554;-64
2022/04/09 02:03:49;;;;;;;21.23;6.67;;;3.90;43.40;;;;;;5057433;28;20535;-64
2022/04/09 02:06:16;;;;;;;13.60;5.83;;;3.90;89.40;;;;;;5057474;28;20745;-64
2022/04/09 02:08:43;;;;;;;11.10;6.37;;;3.90;98.30;;;;;;5056505;28;20943;-63
2022/04/09 02:11:12;;;;;;;13.40;6.37;;;3.90;95.30;;;;;;5056278;28;20803;-64
2022/04/09 02:13:43;;;;;;;14.17;5.47;;;3.90;99.90;;;;;;5056943;28;20462;-64
2022/04/09 02:16:14;;;;;;;15.40;5.93;;;3.90;99.90;;;;;;5056146;28;20486;-64
2022/04/09 02:18:41;;;;;;;12.37;6.00;;;3.90;99.90;;;;;;5056386;28;20520;-64
2022/04/09 02:21:10;;;;;;;15.63;5.83;;;3.90;99.90;;;;;;5055298;28;20553;-64
2022/04/09 02:23:37;;;;;;;10.70;6.13;;;3.90;99.90;;;;;;5056972;28;20466;-64
2022/04/09 02:26:08;;;;;;;18.20;7.20;;;3.90;99.90;;;;;;5056205;28;20490;-64
2022/04/09 02:28:41;;;;;;;10.90;5.40;;;3.90;99.90;;;;;;5056963;28;20986;-64
2022/04/09 02:31:12;;;;;;;14.40;6.00;;;3.90;99.90;;;;;;5055557;28;20516;-64
2022/04/09 02:33:42;;;;;;;12.40;5.67;;;3.90;99.90;;;;;;5056967;28;20469;-64
2022/04/09 02:36:12;;;;;;;15.83;6.17;;;3.90;99.90;;;;;;5057776;28;20814;-64
2022/04/09 02:38:40;;;;;;;17.00;6.43;;;4.00;99.90;;;;;;5060768;28;20972;-63
2022/04/09 02:41:10;;;;;;;11.83;5.50;;;3.90;99.90;;;;;;5060533;28;20564;-64
2022/04/09 02:43:36;;;;;;;14.67;6.20;;;3.90;99.90;;;;;;5041296;28;20488;-63
2022/04/09 02:46:04;;;;;;;15.03;5.50;;;3.90;99.90;;;;;;5045364;28;20545;-64
2022/04/09 02:48:32;;;;;;;9.17;5.20;;;3.90;99.90;;;;;;5060588;28;20502;-64
2022/04/09 02:51:01;;;;;;;13.50;5.77;;;3.80;99.90;;;;;;5060204;28;20508;-64
2022/04/09 02:53:33;;;;;;;14.93;6.87;;;3.90;99.90;;;;;;5061356;28;20465;-64
2022/04/09 02:56:02;;;;;;;13.57;5.27;;;3.90;99.90;;;;;;5060331;28;20520;-64
2022/04/09 02:58:31;;;;;;;11.10;5.30;;;3.90;99.90;;;;;;5059865;28;20470;-64
2022/04/09 03:01:05;;;;;;;16.10;5.53;;;3.90;99.90;;;;;;5059642;28;20457;-64
2022/04/09 03:03:36;;;;;;;17.20;5.80;;;3.90;99.90;;;;;;5059596;28;20470;-64
2022/04/09 03:06:03;;;;;;;16.50;5.90;;;3.90;99.90;;;;;;5060332;28;20896;-64
2022/04/09 03:08:33;;;;;;;11.57;5.17;;;3.90;99.90;;;;;;5060023;28;20487;-64
2022/04/09 03:11:02;;;;;;;16.67;6.33;;;3.90;99.90;;;;;;5059986;28;20512;-63
2022/04/09 03:13:32;;;;;;;13.60;5.93;;;3.90;93.80;;;;;;5059611;28;20461;-64
2022/04/09 03:15:59;;;;;;;13.73;5.23;;;3.80;83.30;;;;;;5058375;28;20486;-64
2022/04/09 03:18:35;;;;;;;10.87;5.00;;;3.80;91.00;;;;;;5059331;28;20565;-64
2022/04/09 03:21:20;;;;;;;15.33;5.27;;;3.80;97.60;;;;;;5059840;28;20556;-64
2022/04/09 03:23:48;;;;;;;14.00;4.90;;;3.90;81.40;;;;;;5042728;28;20903;-64
2022/04/09 03:26:19;;;;;;;14.37;5.37;;;3.90;96.20;;;;;;5060121;28;20500;-64
2022/04/09 03:28:46;;;;;;;15.53;6.23;;;3.90;98.00;;;;;;5059647;28;20515;-63
2022/04/09 03:31:13;;;;;;;11.13;4.80;;;3.90;99.90;;;;;;5059829;28;20504;-64
2022/04/09 03:33:40;;;;;;;14.27;5.30;;;3.80;92.60;;;;;;5059220;28;20470;-64
2022/04/09 03:36:10;;;;;;;13.20;4.93;;;3.70;99.90;;;;;;5059615;28;20560;-64
2022/04/09 03:38:40;;;;;;;13.10;4.87;;;3.80;99.90;;;;;;5059417;28;20463;-64
2022/04/09 03:41:07;;;;;;;14.70;5.50;;;3.80;99.90;;;;;;5059384;28;20565;-63
2022/04/09 03:43:34;;;;;;;14.40;4.83;;;3.70;99.90;;;;;;5059889;28;20497;-64
2022/04/09 03:46:02;;;;;;;15.20;5.13;;;3.80;99.90;;;;;;5057643;28;20463;-64
2022/04/09 03:48:31;;;;;;;12.97;5.70;;;3.70;99.90;;;;;;5059052;28;20545;-64
2022/04/09 03:51:00;;;;;;;14.53;5.10;;;3.80;99.90;;;;;;5059173;28;20461;-64
2022/04/09 03:53:31;;;;;;;16.80;4.23;;;3.80;99.90;;;;;;5058946;28;20828;-63
2022/04/09 03:56:03;;;;;;;15.30;4.67;;;3.70;99.90;;;;;;5059230;28;20462;-64
2022/04/09 03:58:36;;;;;;;12.50;5.10;;;3.70;99.90;;;;;;5059188;28;20559;-63
2022/04/09 04:01:03;;;;;;;14.80;4.60;;;3.60;99.90;;;;;;5058383;28;20561;-64
2022/04/09 04:03:34;;;;;;;13.67;4.93;;;3.70;99.90;;;;;;5059319;28;20489;-64
2022/04/09 04:06:02;;;;;;;13.83;5.13;;;3.70;99.90;;;;;;5058549;28;20466;-64
2022/04/09 04:08:33;;;;;;;17.50;5.27;;;3.70;99.90;;;;;;5059493;28;20458;-64
2022/04/09 04:11:02;;;;;;;14.27;4.97;;;3.80;99.90;;;;;;5058871;28;20834;-64
2022/04/09 04:13:35;;;;;;;18.00;5.80;;;3.70;95.60;;;;;;5058698;28;20508;-64
2022/04/09 04:16:04;;;;;;;19.60;5.43;;;3.70;97.00;;;;;;5058266;28;20437;-64
2022/04/09 04:18:34;;;;;;;10.07;3.60;;;3.70;99.90;;;;;;5058773;28;20589;-63
2022/04/09 04:21:04;;;;;;;15.77;5.00;;;3.80;99.90;;;;;;5058796;28;20497;-63
2022/04/09 04:23:34;;;;;;;13.80;4.63;;;3.70;99.90;;;;;;5058875;28;20497;-63
2022/04/09 04:26:04;;;;;;;21.47;8.10;;;3.70;99.90;;;;;;5058015;28;20494;-64
2022/04/09 04:28:34;;;;;;;21.80;5.83;;;3.70;99.90;;;;;;5058966;28;20541;-64
2022/04/09 04:31:04;;;;;;;18.60;5.60;;;3.70;99.90;;;;;;5057999;28;20512;-64
2022/04/09 04:33:34;;;;;;;10.33;5.17;;;3.70;86.40;;;;;;5058765;28;20466;-64
2022/04/09 04:36:02;;;;;;;15.60;4.90;;;3.60;99.90;;;;;;5057398;28;20462;-64
2022/04/09 04:38:29;;;;;;;14.83;5.63;;;3.60;99.90;;;;;;5057191;28;20581;-64
2022/04/09 04:40:58;;;;;;;15.67;6.50;;;3.60;99.90;;;;;;5058750;28;20494;-64
2022/04/09 04:43:24;;;;;;;12.90;5.20;;;3.60;99.90;;;;;;5058698;28;20432;-63
2022/04/09 04:45:55;;;;;;;18.37;5.67;;;3.60;99.90;;;;;;5058314;28;20821;-64
2022/04/09 04:48:21;;;;;;;17.70;5.40;;;3.60;99.90;;;;;;5057607;28;20482;-64
2022/04/09 04:50:48;;;;;;;14.83;5.77;;;3.60;99.90;;;;;;5058078;28;20434;-64
2022/04/09 04:53:19;;;;;;;12.97;5.10;;;3.60;99.90;;;;;;5056890;28;20541;-64
2022/04/09 04:55:49;;;;;;;14.60;5.70;;;3.70;99.90;;;;;;5058190;28;20498;-64
2022/04/09 04:58:26;;;;;;;18.90;6.30;;;3.70;99.90;;;;;;5056354;28;20869;-63
2022/04/09 05:00:58;;;;;;;10.60;4.70;;;3.70;99.90;;;;;;5057998;28;20462;-64
2022/04/09 05:03:25;;;;;;;12.00;5.03;;;3.80;99.90;;;;;;5057895;28;20436;-64
2022/04/09 05:05:56;;;;;;;24.00;6.07;;;3.70;99.90;;;;;;5058251;28;20938;-64
2022/04/09 05:08:24;;;;;;;11.13;5.30;;;3.80;99.90;;;;;;5056855;28;20455;-64
2022/04/09 05:10:51;;;;;;;18.37;5.07;;;3.80;99.90;;;;;;5057720;28;20528;-64
2022/04/09 05:13:23;;;;;;;30.90;7.73;;;3.80;99.90;;;;;;5057473;28;20490;-64
2022/04/09 05:15:55;;;;;;;13.33;4.20;;;3.70;99.90;;;;;;5057372;28;20490;-64
2022/04/09 05:18:22;;;;;;;19.23;5.33;;;3.70;99.90;;;;;;5057060;28;20573;-64
2022/04/09 05:20:51;;;;;;;13.63;5.23;;;3.80;99.90;;;;;;5049513;28;20806;-64
2022/04/09 05:23:20;;;;;;;15.23;5.83;;;3.80;99.90;;;;;;5057639;28;20968;-64
2022/04/09 05:25:51;;;;;;;13.27;4.13;;;3.90;67.60;;;;;;5057905;28;20875;-64
2022/04/09 05:28:19;;;;;;;20.07;5.70;;;3.90;22.30;;;;;;5057184;28;20433;-64
2022/04/09 05:30:50;;;;;;;11.90;5.10;;;4.00;9.40;;;;;;5057438;28;20535;-64
2022/04/09 05:33:19;;;;;;;15.10;5.63;;;3.90;16.80;;;;;;5056727;28;20513;-65
2022/04/09 05:35:50;;;;;;;10.97;5.00;;;4.00;99.90;;;;;;5057510;28;20739;-65
2022/04/09 05:38:16;;;;;;;17.80;5.23;;;4.00;99.90;;;;;;5056954;28;20782;-64
2022/04/09 05:40:50;;;;;;;14.30;4.90;;;4.00;99.90;;;;;;5056893;28;20523;-67
2022/04/09 05:43:29;;;;;;;14.60;5.30;;;4.10;99.90;;;;;;5057602;28;20823;-67
2022/04/09 05:45:57;;;;;;;9.33;4.50;;;4.00;41.20;;;;;;5057532;28;20560;-65
2022/04/09 05:48:25;;;;;;;17.53;5.43;;;3.90;19.70;;;;;;5057157;28;20755;-64
2022/04/09 05:51:01;;;;;;;19.00;5.33;;;3.90;99.90;;;;;;5056014;28;20489;-64
2022/04/09 05:53:30;;;;;;;14.40;4.10;;;4.00;99.90;;;;;;5070913;28;20458;-64
2022/04/09 05:55:57;;;;;;;11.53;4.37;;;4.20;99.90;;;;;;5057438;28;20524;-65
2022/04/09 05:58:31;;;;;;;12.90;4.00;;;4.30;99.90;;;;;;5057218;28;20860;-62
2022/04/09 06:01:01;;;;;;;10.50;4.37;;;4.30;29.00;;;;;;5056750;28;20561;-61
2022/04/09 06:03:32;;;;;;;10.70;5.00;;;4.10;1.00;;;;;;5057592;28;20443;-62
2022/04/09 06:05:59;;;;;;;12.13;5.33;;;3.90;25.20;;;;;;5056264;28;20752;-61
2022/04/09 06:08:26;;;;;;;16.67;5.50;;;3.90;63.50;;;;;;5056619;28;20540;-61
2022/04/09 06:10:53;;;;;;;9.80;4.60;;;3.80;99.90;;;;;;5056694;28;20767;-61
2022/04/09 06:13:24;;;;;;;13.90;4.83;;;3.90;99.90;;;;;;5057391;28;20564;-62
2022/04/09 06:15:53;;;;;;;14.87;5.83;;;4.00;99.90;;;;;;5057000;28;20490;-63
2022/04/09 06:18:20;;;;;;;9.83;4.43;;;4.00;99.90;;;;;;5057144;28;20529;-64
2022/04/09 06:20:47;;;;;;;19.73;5.50;;;4.10;99.90;;;;;;5056635;28;20520;-64
2022/04/09 06:23:14;;;;;;;11.83;4.80;;;4.20;99.90;;;;;;5057309;28;20505;-64
2022/04/09 06:25:48;;;;;;;14.77;4.77;;;4.30;99.90;;;;;;5057208;28;20493;-64
2022/04/09 06:28:15;;;;;;;20.17;4.70;;;4.30;99.90;;;;;;5057470;28;20550;-65
2022/04/09 06:30:42;;;;;;;18.30;6.00;;;4.40;99.90;;;;;;5056756;28;20501;-64
2022/04/09 06:33:13;;;;;;;14.20;5.40;;;4.40;99.90;;;;;;5057083;28;20463;-65
2022/04/09 06:35:44;;;;;;;14.70;5.63;;;4.30;55.90;;;;;;5057010;28;20466;-65
2022/04/09 06:38:13;;;;;;;13.90;5.97;;;4.30;6.70;;;;;;5057023;28;20486;-65
2022/04/09 06:40:40;;;;;;;14.53;6.20;;;4.40;1.00;;;;;;5057335;28;20513;-65
2022/04/09 06:43:13;;;;;;;9.90;5.30;;;4.50;20.30;;;;;;5056646;28;20561;-65
2022/04/09 06:45:47;;;;;;;15.53;6.80;;;4.50;5.70;;;;;;5056851;28;20458;-66
2022/04/09 06:48:15;;;;;;;16.63;5.80;;;4.50;1.00;;;;;;5057105;28;20832;-65
2022/04/09 06:50:46;;;;;;;18.90;6.30;;;4.50;1.00;;;;;;5056428;28;20557;-65
2022/04/09 06:53:13;;;;;;;14.87;6.73;;;4.50;1.00;;;;;;5056621;28;20463;-65
2022/04/09 06:55:43;;;;;;;15.67;7.17;;;4.50;1.00;;;;;;5056728;28;20527;-65
2022/04/09 06:58:10;;;;;;;14.47;5.60;;;4.60;1.00;;;;;;5056794;28;20490;-66
2022/04/09 07:00:41;;;;;;;15.40;6.07;;;4.60;1.00;;;;;;5056660;28;20800;-66
2022/04/09 07:03:08;;;;;;;14.40;5.30;;;4.80;1.00;;;;;;5056446;28;20470;-67
2022/04/09 07:05:36;;;;;;;15.50;5.17;;;4.80;1.00;;;;;;5056414;28;20491;-66
2022/04/09 07:08:08;;;;;;;11.50;5.17;;;4.90;1.00;;;;;;5063665;28;20470;-66
2022/04/09 07:10:38;;;;;;;16.50;6.00;;;5.00;1.00;;;;;;5063940;28;20800;-67
2022/04/09 07:13:10;;;;;;;18.20;5.30;;;5.40;1.00;;;;;;5060871;28;20462;-67
2022/04/09 07:15:37;;;;;;;16.50;4.97;;;5.50;1.00;;;;;;5064825;28;20504;-66
2022/04/09 07:18:09;;;;;;;14.33;4.20;;;5.40;1.00;;;;;;5061848;28;20486;-67
2022/04/09 07:20:40;;;;;;;9.53;5.27;;;5.40;1.00;;;;;;5063279;28;20461;-67
2022/04/09 07:23:08;;;;;;;16.67;5.20;;;5.50;1.00;;;;;;5067368;28;20493;-66
2022/04/09 07:25:36;;;;;;;13.60;5.20;;;5.40;1.00;;;;;;5067434;28;20453;-67
2022/04/09 07:28:04;;;;;;;12.03;6.93;;;5.30;1.00;;;;;;5067486;28;20500;-66
2022/04/09 07:30:31;;;;;;;14.87;4.90;;;5.40;1.00;;;;;;5067540;28;20454;-66
2022/04/09 07:33:03;;;;;;;9.60;4.40;;;5.50;1.00;;;;;;5065383;28;20952;-66
2022/04/09 07:35:31;;;;;;;15.10;5.13;;;5.40;1.00;;;;;;5067525;28;20898;-67
2022/04/09 07:38:09;;;;;;;14.90;5.03;;;5.40;1.00;;;;;;5065480;28;20518;-66
2022/04/09 07:40:39;;;;;;;14.43;5.27;;;5.30;1.00;;;;;;5066513;28;20501;-66
2022/04/09 07:43:08;;;;;;;12.47;4.67;;;5.40;1.00;;;;;;5065586;28;20922;-67
2022/04/09 07:45:37;;;;;;;10.90;4.33;;;5.50;1.00;;;;;;5065068;28;20542;-67
2022/04/09 07:48:16;;;;;;;14.73;5.27;;;5.70;1.00;;;;;;5065516;28;20945;-66
2022/04/09 07:50:44;;;;;;;15.30;4.87;;;5.90;1.00;;;;;;5066605;28;20457;-67
2022/04/09 07:53:16;;;;;;;13.40;4.50;;;5.90;1.00;;;;;;5067422;28;20526;-67
2022/04/09 07:55:46;;;;;;;13.63;5.50;;;6.00;1.00;;;;;;5067068;28;20883;-67
2022/04/09 07:58:15;;;;;;;15.53;4.87;;;6.70;1.00;;;;;;5062783;28;20465;-67
2022/04/09 08:00:51;;;;;;;10.07;4.13;;;7.00;1.00;;;;;;5074093;28;21029;-67
2022/04/09 08:03:18;;;;;;;18.37;6.57;;;6.80;1.00;;;;;;5071217;28;20511;-66
2022/04/09 08:05:45;;;;;;;15.63;4.40;;;6.90;1.00;;;;;;5059376;28;20814;-67
2022/04/09 08:08:13;;;;;;;14.10;4.43;;;6.90;1.00;;;;;;5064716;28;20503;-66
2022/04/09 08:10:40;;;;;;;15.50;4.67;;;6.50;1.00;;;;;;5078600;28;20979;-62
2022/04/09 08:13:07;;;;;;;12.17;4.83;;;6.20;1.00;;;;;;5076982;28;20461;-61
2022/04/09 08:15:42;;;;;;;7.60;4.00;;;6.00;1.00;;;;;;5060986;28;20577;-61
2022/04/09 08:18:11;;;;;;;9.60;4.67;;;5.80;1.00;;;;;;5039834;28;21008;-62
2022/04/09 08:20:41;;;;;;;12.73;4.90;;;6.00;1.00;;;;;;5051388;28;20488;-63
2022/04/09 08:23:08;;;;;;;13.13;5.10;;;6.50;1.00;;;;;;5057718;28;20462;-64
2022/04/09 08:25:39;;;;;;;14.73;5.40;;;6.90;1.00;;;;;;5057155;28;20524;-64
2022/04/09 08:28:11;;;;;;;17.60;5.07;;;6.80;1.00;;;;;;5061797;28;20801;-63
2022/04/09 08:30:41;;;;;;;12.40;5.67;;;6.60;1.00;;;;;;5067847;28;20512;-63
2022/04/09 08:33:13;;;;;;;12.80;4.67;;;6.30;1.00;;;;;;5058524;28;20906;-63
2022/04/09 08:35:52;;;;;;;15.33;5.23;;;6.10;1.00;;;;;;5058330;28;20455;-64
2022/04/09 08:38:18;;;;;;;11.13;5.27;;;6.30;1.00;;;;;;5061197;28;21016;-64
2022/04/09 08:40:49;;;;;;;17.70;5.43;;;6.20;1.00;;;;;;5074036;28;20461;-65
2022/04/09 08:43:16;;;;;;;14.10;6.00;;;6.80;1.00;;;;;;5074320;28;20461;-65
2022/04/09 08:45:49;;;;;;;11.47;5.50;;;7.50;1.00;;;;;;5056210;28;20520;-66
2022/04/09 08:48:23;;;;;;;11.17;5.23;;;8.00;1.00;;;;;;5056277;28;20973;-67
2022/04/09 08:50:52;;;;;;;16.47;5.30;;;8.40;1.00;;;;;;5056199;28;20532;-67
2022/04/09 08:53:19;;;;;;;10.67;5.20;;;8.80;1.00;;;;;;5064537;28;20492;-67
2022/04/09 08:55:48;;;;;;;13.70;5.20;;;8.90;99.90;;;;;;5058038;28;20525;-68
2022/04/09 08:58:15;;;;;;;18.77;5.77;;;8.50;99.90;;;;;;5062952;28;20526;-68
2022/04/09 09:00:45;;;;;;;9.10;5.30;;;7.90;99.90;;;;;;5064762;28;20483;-67
2022/04/09 09:03:15;;;;;;;13.50;4.70;;;7.90;99.90;;;;;;5067072;28;20484;-67
2022/04/09 09:05:45;;;;;;;7.30;4.10;;;7.80;99.90;;;;;;5065938;28;20458;-67
2022/04/09 09:08:12;;;;;;;11.70;4.90;;;7.80;99.90;;;;;;5064917;28;20488;-66
2022/04/09 09:10:42;;;;;;;13.23;4.60;;;8.70;99.90;;;;;;5065911;28;20459;-66
2022/04/09 09:13:17;;;;;;;9.20;3.50;;;9.10;99.90;;;;;;5068500;28;20461;-66
2022/04/09 09:15:52;;;;;;;6.80;2.90;;;9.10;99.90;;;;;;5065290;28;20568;-67
2022/04/09 09:18:26;;;;;;;11.27;3.70;;;9.00;99.90;;;;;;5063338;28;20501;-66
2022/04/09 09:20:59;;;;;;;7.60;3.70;;;8.80;99.90;;;;;;5067209;28;20551;-67
2022/04/09 09:23:32;;;;;;;6.80;3.40;;;8.40;99.90;;;;;;5067394;28;20469;-66
2022/04/09 09:26:05;;;;;;;5.40;3.33;;;8.40;99.90;;;;;;5064154;28;20458;-67
2022/04/09 09:28:35;;;;;;;5.77;3.27;;;8.50;99.90;;;;;;5064604;28;20469;-66
2022/04/09 09:31:08;;;;;;;9.70;3.23;;;8.10;99.90;;;;;;5063993;28;20812;-66
2022/04/09 09:33:39;;;;;;;6.20;2.80;;;8.30;99.90;;;;;;5062727;28;20516;-66
2022/04/09 09:36:06;;;;;;;8.40;3.03;;;8.80;99.90;;;;;;5065997;28;20457;-66
2022/04/09 09:38:36;;;;;;;5.80;2.30;;;9.40;99.90;;;;;;5063776;28;20576;-66
2022/04/09 09:41:06;;;;;;;7.70;3.13;;;9.40;99.90;;;;;;5065846;28;20516;-66
2022/04/09 09:43:37;;;;;;;3.40;2.60;;;9.70;99.90;;;;;;5064730;28;20509;-66
2022/04/09 09:46:09;;;;;;;7.17;3.00;;;9.60;99.90;;;;;;5065250;28;20453;-66
2022/04/09 09:48:36;;;;;;;3.93;2.63;;;9.10;99.90;;;;;;5062136;28;20544;-66
2022/04/09 09:51:03;;;;;;;5.00;2.77;;;8.90;99.90;;;;;;5063866;28;20510;-66
2022/04/09 09:53:34;;;;;;;7.33;3.60;;;8.80;99.90;;;;;;5061260;28;20473;-66
2022/04/09 09:56:02;;;;;;;7.13;2.90;;;8.60;99.90;;;;;;5055660;28;20458;-66
2022/04/09 09:58:32;;;;;;;6.57;3.10;;;8.40;99.90;;;;;;5056087;28;20555;-66
2022/04/09 10:01:00;;;;;;;6.40;3.30;;;8.90;99.90;;;;;;5055815;28;20632;-66
2022/04/09 10:03:34;;;;;;;7.20;3.87;;;9.00;99.90;;;;;;5057155;28;20494;-66
2022/04/09 10:06:05;;;;;;;5.43;3.00;;;8.50;99.90;;;;;;5056931;28;20504;-66
2022/04/09 10:08:32;;;;;;;3.17;2.23;;;8.10;99.90;;;;;;5056706;28;20520;-67
2022/04/09 10:11:02;;;;;;;7.07;3.10;;;7.70;99.90;;;;;;5056285;28;20469;-67
2022/04/09 10:13:39;;;;;;;5.40;3.07;;;7.30;99.90;;;;;;5066334;28;20799;-67
2022/04/09 10:16:11;;;;;;;6.50;2.90;;;7.30;99.90;;;;;;5058784;28;20494;-66
2022/04/09 10:18:51;;;;;;;5.60;2.30;;;7.40;99.90;;;;;;5057479;28;20557;-67
2022/04/09 10:21:21;;;;;;;3.37;2.47;;;8.50;99.90;;;;;;5055200;28;20465;-66
2022/04/09 10:23:50;;;;;;;4.70;2.90;;;9.50;99.90;;;;;;5077749;28;20504;-67
2022/04/09 10:26:18;;;;;;;5.43;3.43;;;9.80;99.90;;;;;;5061728;28;20477;-66
2022/04/09 10:28:54;;;;;;;5.53;3.33;;;9.60;99.90;;;;;;5057748;28;20861;-67
2022/04/09 10:31:37;;;;;;;4.60;3.10;;;9.30;99.90;;;;;;5070909;28;20441;-67
2022/04/09 10:34:10;;;;;;;5.40;3.37;;;8.70;99.90;;;;;;5057420;28;20544;-67
2022/04/09 10:37:04;;;;;;;6.43;3.93;;;8.40;99.90;;;;;;5057048;28;20466;-67
2022/04/09 10:39:48;;;;;;;4.33;3.93;;;8.10;99.90;;;;;;5056946;28;20501;-67
2022/04/09 10:42:47;;;;;;;5.67;3.80;;;8.10;99.90;;;;;;5056826;28;20464;-67
2022/04/09 10:45:14;;;;;;;5.87;3.30;;;9.40;99.90;;;;;;5056997;28;20497;-66
2022/04/09 10:48:07;;;;;;;8.17;4.07;;;10.20;99.90;;;;;;5072951;28;20466;-67
2022/04/09 10:51:02;;;;;;;7.43;4.00;;;10.40;99.90;;;;;;5078277;28;20548;-67
2022/04/09 10:53:34;;;;;;;10.37;3.20;;;10.50;99.90;;;;;;5061898;28;20469;-67
2022/04/09 10:56:13;;;;;;;10.97;3.87;;;9.90;99.90;;;;;;5058482;28;20462;-66
2022/04/09 10:59:03;;;;;;;5.93;3.50;;;10.30;99.90;;;;;;5062287;28;20545;-66
2022/04/09 11:01:54;;;;;;;9.87;4.13;;;10.30;99.90;;;;;;5060333;28;20818;-67
2022/04/09 11:04:55;;;;;;;5.77;2.83;;;9.40;99.90;;;;;;5058677;28;20925;-67
2022/04/09 11:07:27;;;;;;;4.47;2.57;;;8.00;99.90;;;;;;5060036;28;20466;-64
2022/04/09 11:09:58;;;;;;;4.67;2.30;;;6.80;99.90;;;;;;5060241;28;20457;-64
2022/04/09 11:12:29;;;;;;;3.20;1.90;;;6.30;99.90;;;;;;5053789;28;20458;-64
2022/04/09 11:15:02;;;;;;;2.13;1.93;;;6.00;99.90;;;;;;5059144;28;20520;-66
2022/04/09 11:17:32;;;;;;;4.77;1.93;;;6.20;99.90;;;;;;5059093;28;20462;-66
2022/04/09 11:20:05;;;;;;;2.50;1.83;;;7.30;99.90;;;;;;5060396;28;20537;-68
2022/04/09 11:22:34;;;;;;;2.70;1.90;;;7.90;99.90;;;;;;5059283;28;20934;-68
2022/04/09 11:25:12;;;;;;;2.23;1.80;;;8.60;99.90;;;;;;5059216;28;20732;-68
2022/04/09 11:27:39;;;;;;;2.37;2.10;;;9.20;99.90;;;;;;5058264;28;20470;-67
2022/04/09 11:30:10;;;;;;;3.50;2.00;;;9.40;99.90;;;;;;5058746;28;20508;-67
2022/04/09 11:32:39;;;;;;;2.30;2.10;;;9.90;99.90;;;;;;5060091;28;20527;-67
2022/04/09 11:35:10;;;;;;;4.30;2.00;;;10.30;99.90;;;;;;5060110;28;20469;-67
2022/04/09 11:37:40;;;;;;;4.80;3.30;;;10.90;99.90;;;;;;5060440;28;20520;-65
2022/04/09 11:40:10;;;;;;;4.63;2.70;;;11.00;99.90;;;;;;5059362;28;20490;-66
2022/04/09 11:42:47;;;;;;;7.37;2.77;;;11.70;99.90;;;;;;5059427;28;20929;-65
2022/04/09 11:45:19;;;;;;;4.40;2.70;;;11.80;99.90;;;;;;5059482;28;20466;-65
2022/04/09 11:47:46;;;;;;;4.20;2.63;;;12.00;99.90;;;;;;5059446;28;20516;-65
2022/04/09 11:50:16;;;;;;;4.17;2.47;;;12.60;99.90;;;;;;5058973;28;20489;-66
2022/04/09 11:52:45;;;;;;;8.43;3.10;;;12.20;99.90;;;;;;5059462;28;20466;-66
2022/04/09 11:55:15;;;;;;;2.57;2.37;;;12.70;99.90;;;;;;5059290;28;20549;-66
2022/04/09 11:57:52;;;;;;;2.60;2.40;;;10.70;99.90;;;;;;5059809;28;20830;-65
2022/04/09 12:00:25;;;;;;;3.90;3.20;;;9.60;99.90;;;;;;5058785;28;20569;-66
2022/04/09 12:03:02;;;;;;;4.33;2.00;;;8.60;99.90;;;;;;5059756;28;20581;-66
2022/04/09 12:05:35;;;;;;;5.40;2.60;;;8.30;99.90;;;;;;5059145;28;20462;-66
2022/04/09 12:08:11;;;;;;;2.57;2.37;;;8.60;99.90;;;;;;5059640;28;20515;-66
2022/04/09 12:10:52;;;;;;;5.97;2.93;;;8.70;99.90;;;;;;5059096;28;20462;-66
2022/04/09 12:13:25;;;;;;;3.10;2.30;;;8.60;99.90;;;;;;5058842;28;20498;-66
2022/04/09 12:16:01;;;;;;;6.27;2.50;;;8.00;99.90;;;;;;5053628;28;21047;-66
2022/04/09 12:18:32;;;;;;;9.50;2.63;;;9.10;99.90;;;;;;5060957;28;20497;-66
2022/04/09 12:21:22;;;;;;;3.00;2.47;;;10.20;99.90;;;;;;5058802;28;20482;-66
2022/04/09 12:24:01;;;;;;;6.70;2.80;;;10.90;99.90;;;;;;5058352;28;20462;-65
2022/04/09 12:26:32;;;;;;;4.03;2.47;;;11.80;99.90;;;;;;5057284;28;20470;-66
2022/04/09 12:29:13;;;;;;;4.10;3.30;;;12.50;99.90;;;;;;5058536;28;20465;-66
2022/04/09 12:31:48;;;;;;;4.47;2.20;;;13.30;99.90;;;;;;5051031;28;20470;-66
2022/04/09 12:34:18;;;;;;;3.20;2.70;;;12.90;99.90;;;;;;5058981;28;20506;-66
2022/04/09 12:37:01;;;;;;;5.10;2.80;;;12.00;99.90;;;;;;5058125;28;20467;-65
2022/04/09 12:39:33;;;;;;;5.40;3.00;;;11.20;99.90;;;;;;5057162;28;20926;-65
2022/04/09 12:42:04;;;;;;;4.60;3.10;;;10.10;99.90;;;;;;5063054;28;20489;-65
2022/04/09 12:44:36;;;;;;;3.00;2.43;;;9.30;99.90;;;;;;5065080;28;20501;-65
2022/04/09 12:47:04;;;;;;;4.43;3.13;;;8.80;99.90;;;;;;5065045;28;20494;-65
2022/04/09 12:49:34;;;;;;;6.17;3.23;;;8.40;99.90;;;;;;5069398;28;20485;-65
2022/04/09 12:52:06;;;;;;;5.73;2.67;;;8.20;99.90;;;;;;5068856;28;20493;-65
2022/04/09 12:54:35;;;;;;;5.77;2.93;;;7.90;99.90;;;;;;5069114;28;20508;-65
2022/04/09 12:57:15;;;;;;;3.70;2.60;;;7.90;99.90;;;;;;5072523;28;20496;-65
2022/04/09 12:59:45;;;;;;;3.97;2.80;;;8.00;99.90;;;;;;5076662;28;21001;-65
2022/04/09 13:02:15;;;;;;;4.90;3.03;;;8.10;99.90;;;;;;5070200;28;20744;-65
2022/04/09 13:04:42;;;;;;;6.23;4.77;;;8.60;99.90;;;;;;5057993;28;20871;-65
2022/04/09 13:07:19;;;;;;;9.30;4.63;;;9.20;99.90;;;;;;5058267;28;20942;-65
2022/04/09 13:09:46;;;;;;;6.83;3.63;;;10.10;99.90;;;;;;5058891;28;20914;-65
2022/04/09 13:12:21;;;;;;;5.63;2.87;;;11.50;99.90;;;;;;5058356;28;20498;-64